Decoded Metar for DTTG (GABES in TUNISIA) (IATA:GAE) | Meteo·Mobile Aviation Weather
aviador You're here:

DTTG Decoded Metar

GABES in TUNISIA
Report Time2018-08-22 06:00:00
UTC Time2018-08-22 06:57:33
Flight Rules vfr VFR
Wind020° at 05 kt
W.Decomp.*RWY 06: 3.8 kt HW 3.3 kt LCW
W.Rank020° ranks 20
Current wind is below 020° avg. (8.1)
Visibility9999 m
Phenomena:N/A
Clouds:Scattered 020 Hf
Expected CloudBase > 2,400 ft AGL from Temp-Dew spread
CeilingNone
Temp25°C (ISA +10)
Dew Point19°C (69% RH)
QNH1015 hPa
Density Alt1,401 ft
Elevation16 ft
Report Wrong Elevation
Raw Report
DTTG 220600Z 02005KT 9999 SCT020 25/19 Q1015 NOSG=

Extra information for DTTG:More info

Metar Taf Metar & Taf Last 4 Metars F.Rules Stats Wind Profile Meteogram Temp Stats Airport Information Weather charts Add Link Nearby VenuesMetar ALERT Operation Metar Decoded Social comments